Time;durP1;ratioP1;P1;durP2;ratioP2;P2;SDS_P1;SDS_P2;PMS_P1;PMS_P2;Temp;Humidity;BMP_temperature;BMP_pressure;BME280_temperature;BME280_humidity;BME280_pressure;Samples;Min_cycle;Max_cycle;Signal;HPM_P1;HPM_P2
2022/09/29 00:00:57;;;;;;;29.75;17.87;;;;;;;9.69;84.64;93519.66;1633389;86;21130;-58
2022/09/29 00:03:24;;;;;;;33.35;18.30;;;;;;;9.65;85.04;93521.84;1633466;86;21604;-57
2022/09/29 00:05:54;;;;;;;39.83;20.88;;;;;;;9.61;85.25;93511.66;1633719;87;21069;-58
2022/09/29 00:08:24;;;;;;;40.95;22.20;;;;;;;9.54;85.50;93510.62;1638301;87;21321;-58
2022/09/29 00:10:52;;;;;;;33.90;18.90;;;;;;;9.50;85.67;93513.58;1638122;86;20974;-58
2022/09/29 00:13:20;;;;;;;31.85;17.82;;;;;;;9.51;85.77;93517.83;1633720;87;20975;-57
2022/09/29 00:16:01;;;;;;;31.23;18.37;;;;;;;9.51;85.90;93511.57;1633638;87;21079;-59
2022/09/29 00:18:29;;;;;;;31.90;18.05;;;;;;;9.57;86.43;93504.19;1633706;86;21098;-58
2022/09/29 00:21:08;;;;;;;33.45;18.10;;;;;;;9.67;86.40;93505.64;1633754;87;21387;-58
2022/09/29 00:23:36;;;;;;;27.00;16.30;;;;;;;9.72;86.18;93504.98;1633792;87;21030;-57
2022/09/29 00:26:15;;;;;;;27.75;16.45;;;;;;;9.76;85.81;93505.58;1633690;87;21050;-58
2022/09/29 00:28:57;;;;;;;26.77;17.40;;;;;;;9.73;85.45;93496.88;1633920;87;21031;-59
2022/09/29 00:31:28;;;;;;;34.60;17.20;;;;;;;9.68;85.66;93504.41;1633815;87;21077;-58
2022/09/29 00:33:55;;;;;;;30.90;16.40;;;;;;;9.70;85.76;93494.48;1638347;86;21124;-58
2022/09/29 00:36:24;;;;;;;32.53;16.62;;;;;;;9.70;85.65;93492.34;1638010;86;20970;-58
2022/09/29 00:38:52;;;;;;;28.23;17.70;;;;;;;9.71;86.06;93499.34;1671804;85;21489;-58
2022/09/29 00:41:23;;;;;;;35.13;18.85;;;;;;;9.75;86.07;93492.45;1641964;85;20998;-58
2022/09/29 00:43:55;;;;;;;34.13;18.82;;;;;;;9.70;85.87;93493.72;1671219;85;21029;-57
2022/09/29 00:46:45;;;;;;;32.45;18.75;;;;;;;9.63;85.96;93494.09;1671357;85;21455;-58
2022/09/29 00:49:30;;;;;;;29.45;16.00;;;;;;;9.60;86.41;93491.66;1641054;87;21018;-57
2022/09/29 00:52:28;;;;;;;31.05;18.82;;;;;;;9.56;86.52;93491.09;1671342;84;21443;-58
2022/09/29 00:55:07;;;;;;;24.65;17.75;;;;;;;9.47;86.87;93489.04;1641065;87;21053;-57
2022/09/29 00:57:40;;;;;;;26.48;16.45;;;;;;;9.48;87.13;93491.93;1671406;84;21081;-58
2022/09/29 01:00:11;;;;;;;29.32;16.37;;;;;;;9.48;87.24;93490.55;1671371;85;21585;-58
2022/09/29 01:02:45;;;;;;;29.02;14.85;;;;;;;9.54;87.42;93496.90;1671236;85;21078;-58
2022/09/29 01:05:20;;;;;;;23.42;14.28;;;;;;;9.64;87.31;93499.73;1671698;84;21458;-58
2022/09/29 01:07:47;;;;;;;23.80;14.98;;;;;;;9.67;86.86;93503.67;1671162;84;21058;-59
2022/09/29 01:10:16;;;;;;;32.88;15.23;;;;;;;9.66;86.62;93498.01;1671429;85;21072;-57
2022/09/29 01:12:44;;;;;;;26.57;15.38;;;;;;;9.70;86.62;93506.08;1671417;85;21249;-58
2022/09/29 01:15:14;;;;;;;26.07;14.95;;;;;;;9.71;86.31;93508.96;1671351;85;21014;-58
2022/09/29 01:17:42;;;;;;;25.37;14.38;;;;;;;9.72;86.35;93500.27;1642827;85;21037;-58
2022/09/29 01:20:17;;;;;;;30.80;14.38;;;;;;;9.76;86.14;93504.20;1671336;85;21042;-58
2022/09/29 01:23:20;;;;;;;27.65;15.53;;;;;;;9.77;86.08;93496.11;1671619;85;21120;-59
2022/09/29 01:26:02;;;;;;;25.43;16.00;;;;;;;9.76;85.96;93498.72;1671464;85;21166;-58
2022/09/29 01:28:53;;;;;;;29.92;15.72;;;;;;;9.67;85.95;93491.92;1671616;85;21058;-57
2022/09/29 01:31:47;;;;;;;31.45;17.27;;;;;;;9.56;86.10;93488.95;1640383;87;20978;-59
2022/09/29 01:34:29;;;;;;;26.48;15.95;;;;;;;9.47;86.57;93482.17;1671864;85;21653;-58
2022/09/29 01:37:27;;;;;;;30.15;16.95;;;;;;;9.48;86.97;93483.69;1641008;87;21445;-59
2022/09/29 01:40:00;;;;;;;28.83;15.63;;;;;;;9.50;87.22;93478.48;1671355;85;21144;-58
2022/09/29 01:42:33;;;;;;;22.82;14.60;;;;;;;9.52;87.37;93472.69;1665765;85;20997;-58
2022/09/29 01:45:11;;;;;;;22.55;13.95;;;;;;;9.55;87.35;93475.08;1671692;84;21463;-58
2022/09/29 01:47:43;;;;;;;20.40;14.15;;;;;;;9.55;87.04;93476.45;1671327;85;21022;-58
2022/09/29 01:50:18;;;;;;;20.70;12.00;;;;;;;9.56;87.09;93467.76;1671968;84;21036;-58
2022/09/29 01:52:49;;;;;;;20.77;11.97;;;;;;;9.55;87.17;93468.22;1671084;85;21143;-58
2022/09/29 01:55:19;;;;;;;28.67;15.50;;;;;;;9.54;87.45;93479.83;1671261;84;21025;-58
2022/09/29 01:57:57;;;;;;;31.05;18.70;;;;;;;9.56;87.40;93473.85;1671308;85;21001;-57
2022/09/29 02:00:30;;;;;;;30.95;18.12;;;;;;;9.51;87.33;93468.42;1641462;86;21525;-59
2022/09/29 02:03:01;;;;;;;33.33;15.75;;;;;;;9.55;87.81;93454.49;1671273;85;21021;-58
2022/09/29 02:05:51;;;;;;;29.45;14.75;;;;;;;9.59;87.52;93449.59;1663849;85;21245;-56
2022/09/29 02:08:40;;;;;;;25.85;13.58;;;;;;;9.61;87.55;93449.88;1670995;84;20990;-58
2022/09/29 02:11:13;;;;;;;17.25;11.73;;;;;;;9.58;87.47;93453.58;1671426;85;21037;-58
2022/09/29 02:14:16;;;;;;;21.15;11.93;;;;;;;9.52;87.41;93443.86;1641185;87;21518;-58
2022/09/29 02:16:47;;;;;;;20.90;11.30;;;;;;;9.48;87.62;93448.01;1610639;88;21045;-58
2022/09/29 02:19:25;;;;;;;21.50;11.97;;;;;;;9.45;87.89;93446.21;1589366;89;21226;-58
2022/09/29 02:21:53;;;;;;;25.97;14.90;;;;;;;9.48;87.89;93441.14;1641120;86;20993;-58
2022/09/29 02:24:23;;;;;;;25.20;13.78;;;;;;;9.47;87.82;93441.00;1671279;86;21106;-58
2022/09/29 02:26:50;;;;;;;26.97;13.08;;;;;;;9.43;87.90;93430.20;1671180;85;21066;-59
2022/09/29 02:29:19;;;;;;;29.35;12.70;;;;;;;9.41;88.14;93416.20;1671341;86;21077;-59
2022/09/29 02:31:47;;;;;;;24.67;12.55;;;;;;;9.43;88.10;93421.23;1671406;85;21811;-58
2022/09/29 02:34:19;;;;;;;27.30;14.87;;;;;;;9.41;87.97;93411.34;1671244;86;21033;-58
2022/09/29 02:37:16;;;;;;;29.80;16.02;;;;;;;9.39;88.06;93415.91;1671393;84;21054;-57
2022/09/29 02:40:17;;;;;;;37.95;18.12;;;;;;;9.39;88.59;93434.35;1671730;85;21038;-59
2022/09/29 02:42:53;;;;;;;33.38;16.48;;;;;;;9.36;88.66;93444.30;1643066;86;21490;-58
2022/09/29 02:45:50;;;;;;;25.48;14.73;;;;;;;9.30;88.53;93448.16;1671295;86;21221;-58
2022/09/29 02:48:47;;;;;;;28.10;14.60;;;;;;;9.24;88.44;93440.45;1671237;84;21561;-58
2022/09/29 02:51:36;;;;;;;20.20;14.30;;;;;;;9.17;88.92;93432.56;1671552;85;21218;-57
2022/09/29 02:54:43;;;;;;;25.50;16.05;;;;;;;9.21;89.20;93437.28;1671325;85;20994;-58
2022/09/29 02:57:33;;;;;;;27.32;14.87;;;;;;;9.20;89.08;93439.84;1641231;86;20969;-58
2022/09/29 03:00:10;;;;;;;23.50;14.83;;;;;;;9.19;89.23;93446.56;1671389;86;21822;-57
2022/09/29 03:02:38;;;;;;;17.67;13.13;;;;;;;9.17;89.39;93451.77;1641138;86;21069;-58
2022/09/29 03:05:15;;;;;;;26.20;14.13;;;;;;;9.18;89.47;93438.19;1671385;86;21044;-58
2022/09/29 03:07:45;;;;;;;28.62;14.78;;;;;;;9.23;89.51;93448.53;1671266;84;21038;-58
2022/09/29 03:10:14;;;;;;;26.00;13.60;;;;;;;9.26;89.41;93448.97;1671281;85;20985;-57
2022/09/29 03:12:42;;;;;;;19.25;13.58;;;;;;;9.26;89.23;93440.11;1671771;85;21901;-58
2022/09/29 03:15:11;;;;;;;21.20;12.78;;;;;;;9.18;89.25;93454.05;1671639;85;20982;-58
2022/09/29 03:17:39;;;;;;;24.80;12.18;;;;;;;9.11;89.43;93446.79;1671457;85;21513;-58
2022/09/29 03:20:07;;;;;;;42.25;14.10;;;;;;;9.06;89.64;93448.81;1671640;85;21025;-59
2022/09/29 03:22:35;;;;;;;25.30;12.40;;;;;;;9.04;90.26;93445.79;1614070;87;21600;-58
2022/09/29 03:25:05;;;;;;;22.48;13.48;;;;;;;9.08;90.78;93447.11;1671667;85;21275;-58
2022/09/29 03:27:35;;;;;;;29.27;14.95;;;;;;;9.08;90.12;93447.73;1671644;85;20989;-58
2022/09/29 03:30:06;;;;;;;26.48;14.25;;;;;;;9.04;90.49;93451.27;1671908;84;20986;-58
2022/09/29 03:32:35;;;;;;;35.70;16.15;;;;;;;9.11;90.59;93461.88;1641511;87;21002;-58
2022/09/29 03:35:03;;;;;;;37.73;14.93;;;;;;;9.20;90.51;93455.71;1643166;85;21494;-58
2022/09/29 03:37:31;;;;;;;27.75;15.80;;;;;;;9.25;90.05;93456.42;1641207;87;21213;-57
2022/09/29 03:39:59;;;;;;;37.00;16.10;;;;;;;9.21;89.93;93446.87;1642721;85;21529;-58
2022/09/29 03:42:27;;;;;;;41.18;16.48;;;;;;;9.18;90.05;93443.68;1671381;85;21089;-58
2022/09/29 03:44:54;;;;;;;35.68;15.55;;;;;;;9.18;90.17;93447.20;1671863;85;21442;-58
2022/09/29 03:47:23;;;;;;;20.77;12.43;;;;;;;9.18;90.07;93447.20;1671419;85;20986;-58
2022/09/29 03:49:53;;;;;;;24.63;13.60;;;;;;;9.18;90.07;93451.31;1643166;85;21301;-58
2022/09/29 03:52:20;;;;;;;29.45;13.78;;;;;;;9.19;90.33;93450.68;1671421;85;21432;-58
2022/09/29 03:54:48;;;;;;;28.45;14.70;;;;;;;9.26;90.63;93458.57;1641123;87;21047;-57
2022/09/29 03:57:16;;;;;;;29.67;15.32;;;;;;;9.30;90.32;93463.25;1671488;85;21072;-58
2022/09/29 03:59:43;;;;;;;30.12;16.35;;;;;;;9.34;90.25;93451.48;1671416;85;20990;-57
2022/09/29 04:02:11;;;;;;;28.15;15.53;;;;;;;9.36;90.04;93458.02;1641093;87;21447;-57
2022/09/29 04:04:38;;;;;;;30.95;15.95;;;;;;;9.35;89.87;93462.59;1642515;85;21049;-58
2022/09/29 04:07:07;;;;;;;22.95;15.60;;;;;;;9.33;89.79;93453.48;1671431;85;21525;-57
2022/09/29 04:09:36;;;;;;;23.45;15.28;;;;;;;9.32;90.13;93460.80;1620428;87;21097;-57
2022/09/29 04:12:04;;;;;;;31.60;16.55;;;;;;;9.31;90.11;93457.91;1646535;87;21472;-57
2022/09/29 04:14:32;;;;;;;24.02;15.53;;;;;;;9.31;90.28;93463.41;1646294;87;21230;-58
2022/09/29 04:17:00;;;;;;;27.65;17.67;;;;;;;9.33;90.11;93466.43;1646532;87;21444;-58
2022/09/29 04:19:28;;;;;;;23.83;12.70;;;;;;;9.31;89.86;93454.56;1646391;87;20997;-57
2022/09/29 04:21:57;;;;;;;21.33;11.93;;;;;;;9.33;89.76;93452.70;1646231;85;21029;-58
2022/09/29 04:24:25;;;;;;;18.52;10.90;;;;;;;9.27;89.56;93450.48;1646345;85;20985;-58
2022/09/29 04:26:53;;;;;;;20.57;11.30;;;;;;;9.23;89.65;93447.16;1646627;87;21777;-58
2022/09/29 04:29:20;;;;;;;24.70;12.58;;;;;;;9.22;89.71;93460.73;1646243;87;20973;-57
2022/09/29 04:31:49;;;;;;;42.78;16.73;;;;;;;9.16;89.54;93456.52;1646602;85;21155;-58
2022/09/29 04:34:17;;;;;;;30.68;15.90;;;;;;;9.12;89.67;93455.94;1641853;87;21048;-58
2022/09/29 04:36:45;;;;;;;33.00;16.45;;;;;;;9.09;89.97;93456.84;1646306;85;20989;-60
2022/09/29 04:39:13;;;;;;;35.60;17.17;;;;;;;9.11;90.33;93451.65;1646257;85;21874;-60
2022/09/29 04:41:42;;;;;;;29.45;16.82;;;;;;;9.18;90.62;93451.91;1646314;87;20976;-62
2022/09/29 04:44:10;;;;;;;27.45;15.05;;;;;;;9.23;90.93;93456.14;1646236;87;21500;-59
2022/09/29 04:46:37;;;;;;;25.55;15.28;;;;;;;9.31;90.76;93448.30;1620164;87;21524;-59
2022/09/29 04:49:06;;;;;;;32.55;15.20;;;;;;;9.34;90.24;93449.51;1646342;87;21068;-59
2022/09/29 04:51:33;;;;;;;24.67;14.45;;;;;;;9.37;90.10;93459.54;1646192;87;21257;-59
2022/09/29 04:54:01;;;;;;;34.23;16.42;;;;;;;9.36;89.94;93455.88;1646211;87;20976;-60
2022/09/29 04:56:30;;;;;;;30.62;17.87;;;;;;;9.31;89.94;93453.80;1641965;87;21501;-63
2022/09/29 04:58:58;;;;;;;32.98;20.20;;;;;;;9.36;90.43;93462.14;1646245;87;21001;-61
2022/09/29 05:01:27;;;;;;;36.23;19.67;;;;;;;9.43;89.95;93453.53;1646271;87;21053;-60
2022/09/29 05:03:55;;;;;;;28.62;15.65;;;;;;;9.45;89.50;93460.67;1646199;87;21220;-59
2022/09/29 05:06:23;;;;;;;29.92;14.78;;;;;;;9.45;89.22;93464.05;1641715;86;20993;-59
2022/09/29 05:08:53;;;;;;;26.25;14.38;;;;;;;9.38;89.22;93453.42;1660880;84;21050;-57
2022/09/29 05:11:20;;;;;;;30.00;12.95;;;;;;;9.32;89.54;93448.45;1671374;85;21529;-59
2022/09/29 05:13:49;;;;;;;17.65;11.03;;;;;;;9.31;89.86;93451.05;1671330;85;21081;-61
2022/09/29 05:16:18;;;;;;;26.23;12.03;;;;;;;9.36;90.04;93456.66;1671287;85;21337;-61
2022/09/29 05:18:46;;;;;;;30.20;13.68;;;;;;;9.41;90.32;93441.52;1671225;85;21081;-60
2022/09/29 05:21:13;;;;;;;23.77;13.88;;;;;;;9.49;90.42;93450.30;1642644;85;21002;-60
2022/09/29 05:23:42;;;;;;;21.97;14.07;;;;;;;9.56;89.86;93458.75;1671088;84;21001;-60
2022/09/29 05:26:10;;;;;;;26.40;16.25;;;;;;;9.54;89.78;93455.13;1641342;87;21105;-60
2022/09/29 05:28:40;;;;;;;22.60;15.38;;;;;;;9.55;89.45;93454.49;1630396;85;21183;-60
2022/09/29 05:31:09;;;;;;;30.68;15.78;;;;;;;9.48;89.18;93459.77;1649270;85;21105;-59
2022/09/29 05:33:36;;;;;;;29.48;13.90;;;;;;;9.43;88.97;93452.79;1675879;85;21064;-60
2022/09/29 05:36:09;;;;;;;45.78;16.50;;;;;;;9.38;88.98;93456.16;1650051;85;20989;-61
2022/09/29 05:38:37;;;;;;;29.65;15.32;;;;;;;9.33;89.17;93454.08;1676636;84;21632;-61
2022/09/29 05:41:11;;;;;;;29.45;17.10;;;;;;;9.32;89.56;93455.31;1678323;83;21145;-61
2022/09/29 05:43:40;;;;;;;26.93;15.98;;;;;;;9.34;89.89;93452.25;1682753;83;21013;-61
2022/09/29 05:46:09;;;;;;;25.65;15.93;;;;;;;9.43;90.13;93447.30;1651195;84;21091;-63
2022/09/29 05:48:38;;;;;;;30.23;15.40;;;;;;;9.53;90.13;93446.75;1680380;84;21582;-61
2022/09/29 05:51:13;;;;;;;32.90;17.65;;;;;;;9.63;89.86;93441.93;1653989;84;21104;-63
2022/09/29 05:53:42;;;;;;;52.67;28.25;;;;;;;9.67;89.68;93442.49;1667983;84;21273;-60
2022/09/29 05:56:15;;;;;;;45.15;26.23;;;;;;;9.73;89.94;93446.09;1679933;83;21068;-61
2022/09/29 05:58:43;;;;;;;35.78;19.75;;;;;;;9.80;89.75;93447.10;1682862;83;21061;-60
2022/09/29 06:01:14;;;;;;;30.65;16.35;;;;;;;9.85;89.29;93453.30;1676548;84;21065;-64
2022/09/29 06:03:42;;;;;;;70.15;34.58;;;;;;;9.89;88.90;93446.99;1696282;83;21010;-65
2022/09/29 06:06:13;;;;;;;41.08;18.40;;;;;;;9.88;88.76;93444.11;1670495;84;21143;-67
2022/09/29 06:08:41;;;;;;;38.40;15.60;;;;;;;9.91;88.75;93432.17;1680352;84;21095;-68
2022/09/29 06:11:11;;;;;;;26.17;14.03;;;;;;;9.89;88.59;93426.39;1689437;83;20987;-62
2022/09/29 06:13:44;;;;;;;28.87;13.10;;;;;;;9.87;88.60;93426.11;1692466;83;22122;-61
2022/09/29 06:16:12;;;;;;;35.10;14.35;;;;;;;9.88;88.67;93431.74;1673328;83;21231;-62
2022/09/29 06:18:41;;;;;;;28.05;17.80;;;;;;;9.94;88.95;93425.12;1695676;83;21785;-61
2022/09/29 06:21:12;;;;;;;25.05;15.95;;;;;;;10.07;89.07;93439.95;1690239;83;21086;-59
2022/09/29 06:23:41;;;;;;;18.27;12.25;;;;;;;10.20;89.05;93436.30;1694245;83;26449;-58
2022/09/29 06:26:11;;;;;;;23.95;11.97;;;;;;;10.29;88.27;93429.31;1689762;83;21133;-60
2022/09/29 06:28:40;;;;;;;28.75;13.40;;;;;;;10.37;87.61;93437.32;1692974;83;21549;-63
2022/09/29 06:31:14;;;;;;;21.82;11.93;;;;;;;10.41;86.96;93437.27;1690790;83;21137;-59
2022/09/29 06:33:42;;;;;;;20.57;12.15;;;;;;;10.42;86.55;93433.89;1685735;83;20960;-59
2022/09/29 06:39:11;;;;;;;56.55;14.58;;;;;;;10.50;86.53;93424.03;1695019;83;21576;-61
2022/09/29 06:41:39;;;;;;;26.37;12.23;;;;;;;10.62;86.24;93429.81;1693414;83;21066;-61
2022/09/29 06:44:07;;;;;;;32.85;12.20;;;;;;;10.67;85.75;93422.25;1694606;84;21268;-60
2022/09/29 06:46:35;;;;;;;39.67;12.73;;;;;;;10.69;85.43;93415.67;1680866;83;21104;-65
2022/09/29 06:49:04;;;;;;;23.95;11.50;;;;;;;10.71;85.26;93414.58;1685184;83;21090;-61
2022/09/29 06:51:31;;;;;;;32.50;13.18;;;;;;;10.74;85.32;93407.47;1693842;84;20981;-63
2022/09/29 06:53:59;;;;;;;27.98;12.47;;;;;;;10.82;85.34;93413.47;1692045;83;21075;-64
2022/09/29 06:56:28;;;;;;;21.97;10.32;;;;;;;10.94;85.04;93413.75;1694279;83;21886;-62
2022/09/29 06:58:57;;;;;;;17.30;9.25;;;;;;;11.05;84.48;93411.16;1695411;83;21064;-60
2022/09/29 07:01:25;;;;;;;23.20;10.60;;;;;;;11.16;83.73;93412.64;1689048;83;21052;-60
2022/09/29 07:03:53;;;;;;;18.02;9.20;;;;;;;11.23;83.30;93410.87;1693922;83;21053;-63
2022/09/29 07:06:22;;;;;;;17.07;9.45;;;;;;;11.37;83.17;93416.14;1688659;83;21384;-62
2022/09/29 07:08:53;;;;;;;16.30;11.30;;;;;;;11.56;82.38;93427.02;1690386;83;21497;-63
2022/09/29 07:11:21;;;;;;;23.10;11.03;;;;;;;11.66;81.38;93433.27;1683181;83;21067;-63
2022/09/29 07:13:50;;;;;;;28.87;9.18;;;;;;;11.72;81.26;93427.81;1686529;84;21067;-65
2022/09/29 07:16:19;;;;;;;14.07;8.35;;;;;;;11.81;80.63;93435.30;1683601;83;21069;-59
2022/09/29 07:18:48;;;;;;;38.92;7.80;;;;;;;11.89;80.22;93426.72;1688817;84;21618;-63
2022/09/29 07:21:20;;;;;;;10.63;5.80;;;;;;;11.98;79.69;93421.06;1670762;83;21161;-61
2022/09/29 07:23:48;;;;;;;8.28;5.78;;;;;;;12.11;78.97;93428.30;1680451;84;21186;-61
2022/09/29 07:26:17;;;;;;;12.73;7.35;;;;;;;12.23;78.02;93435.42;1682491;84;21041;-61
2022/09/29 07:28:46;;;;;;;27.70;8.38;;;;;;;12.31;77.42;93432.38;1679912;84;21035;-63
2022/09/29 07:31:18;;;;;;;23.92;7.97;;;;;;;12.40;77.42;93432.79;1681445;82;21089;-61
2022/09/29 07:33:47;;;;;;;19.32;8.78;;;;;;;12.54;76.98;93431.28;1683687;84;21623;-62
2022/09/29 07:36:17;;;;;;;14.30;8.43;;;;;;;12.64;76.81;93431.21;1669168;84;20905;-61
2022/09/29 07:38:49;;;;;;;21.73;9.43;;;;;;;12.73;76.64;93428.28;1684327;84;21091;-62
2022/09/29 07:41:20;;;;;;;17.25;7.67;;;;;;;12.84;76.42;93429.70;1678170;84;21326;-61
2022/09/29 07:43:47;;;;;;;27.15;8.30;;;;;;;12.91;75.68;93432.03;1659691;84;21581;-62
2022/09/29 07:46:16;;;;;;;12.93;8.00;;;;;;;12.90;75.62;93425.73;1630633;85;21895;-62
2022/09/29 07:48:45;;;;;;;13.78;7.30;;;;;;;12.91;75.48;93432.77;1680442;84;21017;-62
2022/09/29 07:51:15;;;;;;;15.90;6.95;;;;;;;12.93;75.05;93432.31;1642980;85;21099;-61
2022/09/29 07:53:43;;;;;;;26.37;6.50;;;;;;;12.96;74.83;93426.57;1611869;87;21490;-61
2022/09/29 07:56:18;;;;;;;18.80;7.83;;;;;;;13.01;74.66;93427.22;1635306;86;21386;-62
2022/09/29 07:58:46;;;;;;;26.70;12.55;;;;;;;13.07;74.29;93424.49;1623621;86;21271;-62
2022/09/29 08:01:14;;;;;;;15.40;10.00;;;;;;;13.11;74.35;93427.77;1622743;86;21058;-61
2022/09/29 08:03:51;;;;;;;19.37;7.90;;;;;;;13.15;74.36;93428.28;1634191;86;21208;-65
2022/09/29 08:06:19;;;;;;;22.10;9.43;;;;;;;13.23;74.49;93432.10;1612210;87;22015;-60
2022/09/29 08:08:48;;;;;;;17.75;8.55;;;;;;;13.37;74.44;93438.81;1641064;85;21529;-61
2022/09/29 08:11:21;;;;;;;17.90;8.80;;;;;;;13.52;73.90;93433.08;1640803;86;21131;-61
2022/09/29 08:13:53;;;;;;;15.32;8.65;;;;;;;13.70;73.39;93434.02;1660277;84;21586;-63
2022/09/29 08:16:21;;;;;;;30.30;9.45;;;;;;;13.93;72.68;93443.86;1641005;85;21021;-62
2022/09/29 08:18:49;;;;;;;38.85;20.92;;;;;;;14.12;71.86;93441.52;1642793;87;21048;-62
2022/09/29 08:21:17;;;;;;;18.85;11.20;;;;;;;14.16;71.53;93435.78;1633465;86;21116;-61
2022/09/29 08:23:45;;;;;;;16.32;8.33;;;;;;;14.17;71.16;93433.14;1658401;84;21142;-62
2022/09/29 08:26:14;;;;;;;22.42;10.30;;;;;;;14.21;70.72;93436.41;1634271;86;21362;-63
2022/09/29 08:28:43;;;;;;;24.18;10.38;;;;;;;14.33;70.74;93436.55;1642345;85;21607;-60
2022/09/29 08:31:19;;;;;;;29.25;13.05;;;;;;;14.44;70.64;93425.59;1637465;85;21105;-58
2022/09/29 08:33:44;;;;;;;26.95;12.35;;;;;;;14.61;70.38;93431.88;1644990;85;20982;-61
2022/09/29 08:36:15;;;;;;;25.32;10.98;;;;;;;14.82;69.63;93419.27;1642875;85;21256;-62
2022/09/29 08:38:46;;;;;;;16.05;9.93;;;;;;;15.00;68.47;93421.50;1639125;85;21024;-60
2022/09/29 08:41:32;;;;;;;20.20;9.73;;;;;;;15.09;68.42;93422.63;1637137;85;21072;-59
2022/09/29 08:44:05;;;;;;;18.67;9.30;;;;;;;15.24;67.95;93405.08;1653256;86;22173;-62
2022/09/29 08:46:54;;;;;;;28.77;9.85;;;;;;;15.42;68.00;93402.39;1636783;85;21238;-63
2022/09/29 08:49:41;;;;;;;17.65;7.72;;;;;;;15.65;67.10;93407.95;1642435;85;21116;-59
2022/09/29 08:52:15;;;;;;;19.55;7.92;;;;;;;15.89;66.05;93404.67;1642765;86;21163;-62
2022/09/29 08:54:43;;;;;;;14.68;7.22;;;;;;;16.01;64.86;93410.27;1661757;86;21607;-60
2022/09/29 08:57:19;;;;;;;13.18;6.87;;;;;;;16.08;64.04;93405.55;1621256;87;21064;-58
2022/09/29 08:59:57;;;;;;;20.70;8.75;;;;;;;16.11;63.87;93397.58;1658641;86;21589;-59
2022/09/29 09:02:33;;;;;;;22.00;8.43;;;;;;;16.23;63.68;93398.26;1642257;85;21162;-59
2022/09/29 09:05:42;;;;;;;12.37;7.35;;;;;;;16.29;63.28;93394.17;1637643;84;21114;-62
2022/09/29 09:08:24;;;;;;;36.77;9.55;;;;;;;16.28;63.19;93393.32;1634133;87;21058;-61
2022/09/29 09:11:16;;;;;;;16.93;8.90;;;;;;;16.28;63.64;93398.98;1619493;87;21113;-61
2022/09/29 09:14:23;;;;;;;18.80;8.70;;;;;;;16.40;63.38;93388.58;1634939;85;21104;-61
2022/09/29 09:17:24;;;;;;;22.40;8.75;;;;;;;16.60;63.48;93388.16;1634916;85;21823;-58
2022/09/29 09:20:16;;;;;;;21.15;8.55;;;;;;;16.79;63.21;93388.37;1672395;85;21091;-62
2022/09/29 09:22:56;;;;;;;22.95;8.05;;;;;;;16.85;62.94;93389.05;1675306;84;21048;-63
2022/09/29 09:25:34;;;;;;;16.32;8.30;;;;;;;16.88;62.47;93370.61;1678848;83;21028;-60
2022/09/29 09:28:34;;;;;;;26.82;7.37;;;;;;;17.00;62.54;93385.87;1651382;85;20989;-62
2022/09/29 09:31:13;;;;;;;21.73;8.40;;;;;;;17.03;62.56;93386.22;1638459;87;21498;-63
2022/09/29 09:33:51;;;;;;;9.85;6.12;;;;;;;17.07;63.12;93379.75;1650814;84;21573;-62
2022/09/29 09:36:24;;;;;;;21.55;7.08;;;;;;;17.22;62.42;93387.02;1625126;86;21085;-63
2022/09/29 09:39:13;;;;;;;11.97;6.30;;;;;;;17.43;62.40;93374.19;1602052;87;21529;-62
2022/09/29 09:41:42;;;;;;;20.80;12.73;;;;;;;17.73;61.75;93378.97;1630412;84;21127;-58
2022/09/29 09:44:38;;;;;;;26.07;10.13;;;;;;;18.02;61.54;93378.08;1655291;85;21298;-63
2022/09/29 09:47:18;;;;;;;18.27;7.30;;;;;;;18.40;61.66;93377.50;1617292;86;21112;-61
2022/09/29 09:49:52;;;;;;;17.23;6.22;;;;;;;18.90;61.78;93376.05;1614788;85;21036;-62
2022/09/29 09:52:33;;;;;;;11.00;6.50;;;;;;;19.34;61.73;93377.40;1650026;84;21143;-59
2022/09/29 09:55:04;;;;;;;14.73;7.55;;;;;;;19.81;60.07;93375.44;1675410;84;20981;-63
2022/09/29 09:58:02;;;;;;;13.48;6.45;;;;;;;20.29;58.47;93379.09;1679727;84;21203;-62
2022/09/29 10:00:48;;;;;;;14.75;6.37;;;;;;;20.65;57.38;93380.01;1676410;83;21157;-62
2022/09/29 10:03:16;;;;;;;15.85;6.80;;;;;;;20.97;56.66;93375.69;1675987;83;21071;-61
2022/09/29 10:05:45;;;;;;;10.55;6.05;;;;;;;21.45;57.15;93377.70;1678268;83;21072;-63
2022/09/29 10:08:28;;;;;;;22.85;7.00;;;;;;;22.03;56.25;93375.80;1677144;84;21013;-65
2022/09/29 10:10:58;;;;;;;20.57;6.30;;;;;;;22.54;55.88;93385.61;1673410;84;21682;-61
2022/09/29 10:13:28;;;;;;;15.80;8.93;;;;;;;23.28;54.19;93369.55;1678830;84;21108;-63
2022/09/29 10:16:07;;;;;;;10.30;4.90;;;;;;;23.99;53.43;93377.48;1651042;85;21051;-63
2022/09/29 10:18:44;;;;;;;14.45;3.17;;;;;;;24.88;50.34;93374.14;1666129;85;21055;-63
2022/09/29 10:21:38;;;;;;;6.72;2.50;;;;;;;25.65;43.67;93363.89;1647314;86;21070;-61
2022/09/29 10:24:19;;;;;;;12.10;2.30;;;;;;;26.08;41.76;93377.45;1666349;85;21122;-61
2022/09/29 10:26:48;;;;;;;7.28;2.25;;;;;;;26.28;39.24;93371.31;1709695;83;21026;-62
2022/09/29 10:29:40;;;;;;;13.95;3.00;;;;;;;26.38;38.93;93374.93;1710137;82;22138;-62
2022/09/29 10:32:18;;;;;;;11.22;2.90;;;;;;;26.63;38.93;93384.79;1709439;83;21093;-64
2022/09/29 10:34:48;;;;;;;14.70;2.65;;;;;;;26.95;37.87;93387.37;1652331;86;21472;-62
2022/09/29 10:37:26;;;;;;;5.00;2.00;;;;;;;27.05;37.19;93382.50;1663388;84;21267;-65
2022/09/29 10:40:10;;;;;;;5.37;2.05;;;;;;;27.20;37.18;93392.19;1681262;83;21105;-63
2022/09/29 10:42:39;;;;;;;4.58;1.60;;;;;;;27.47;36.23;93395.73;1690603;83;21204;-61
2022/09/29 10:45:14;;;;;;;8.00;1.67;;;;;;;27.48;35.92;93391.56;1681518;85;21084;-65
2022/09/29 10:47:49;;;;;;;7.22;1.90;;;;;;;27.37;35.51;93394.94;1680762;84;21115;-65
2022/09/29 10:50:24;;;;;;;10.03;2.40;;;;;;;27.10;36.11;93394.23;1693368;83;21141;-63
2022/09/29 10:52:57;;;;;;;7.35;1.92;;;;;;;27.17;36.11;93392.61;1679625;83;21548;-66
2022/09/29 10:55:27;;;;;;;21.15;3.20;;;;;;;27.29;36.44;93389.33;1681255;84;20966;-65
2022/09/29 10:57:57;;;;;;;5.53;1.42;;;;;;;27.09;36.36;93394.78;1680834;84;21013;-61
2022/09/29 11:00:36;;;;;;;4.35;2.45;;;;;;;26.49;36.41;93392.11;1681104;83;21753;-64
2022/09/29 11:03:18;;;;;;;9.90;2.50;;;;;;;25.78;37.76;93401.59;1648702;85;21418;-61
2022/09/29 11:05:57;;;;;;;20.08;2.65;;;;;;;25.12;39.16;93405.80;1679263;83;21032;-63
2022/09/29 11:08:26;;;;;;;17.07;3.02;;;;;;;24.49;39.71;93407.25;1676815;83;21650;-62
2022/09/29 11:11:20;;;;;;;7.78;2.00;;;;;;;23.94;41.04;93405.11;1682232;84;21351;-62
2022/09/29 11:13:51;;;;;;;12.45;2.80;;;;;;;23.58;42.97;93390.55;1680119;83;21067;-63
2022/09/29 11:16:31;;;;;;;18.40;4.33;;;;;;;23.29;43.51;93392.09;1681980;83;21278;-63
2022/09/29 11:19:09;;;;;;;5.58;2.83;;;;;;;23.08;43.99;93398.52;1686164;84;21032;-65
2022/09/29 11:22:07;;;;;;;6.37;2.90;;;;;;;22.83;43.97;93405.95;1684725;83;21507;-63
2022/09/29 11:25:03;;;;;;;12.45;3.30;;;;;;;22.48;44.90;93404.67;1674808;84;21136;-62
2022/09/29 11:27:57;;;;;;;12.98;3.47;;;;;;;22.11;46.08;93407.39;1681191;84;21123;-65
2022/09/29 11:30:30;;;;;;;12.13;4.12;;;;;;;21.86;46.52;93405.58;1677018;83;21881;-64
2022/09/29 11:33:21;;;;;;;13.93;3.95;;;;;;;21.64;47.27;93401.28;1678757;83;21178;-61
2022/09/29 11:36:04;;;;;;;10.55;3.92;;;;;;;21.53;48.33;93402.30;1640164;87;21098;-63
2022/09/29 11:38:48;;;;;;;7.23;4.30;;;;;;;21.41;48.92;93410.13;1612436;87;21014;-62
2022/09/29 11:41:52;;;;;;;10.65;4.35;;;;;;;21.31;49.37;93400.73;1632516;86;21065;-64
2022/09/29 11:44:49;;;;;;;16.57;5.05;;;;;;;21.15;49.95;93413.11;1617813;87;21669;-63
2022/09/29 11:47:44;;;;;;;8.18;4.62;;;;;;;20.98;50.81;93409.98;1655331;85;21039;-64
2022/09/29 11:50:22;;;;;;;11.90;4.92;;;;;;;20.89;51.33;93398.63;1646402;85;21105;-64
2022/09/29 11:53:33;;;;;;;11.22;4.87;;;;;;;21.08;51.55;93398.42;1637539;86;21727;-58
2022/09/29 11:56:07;;;;;;;10.43;3.95;;;;;;;21.40;51.41;93401.63;1652428;85;21062;-60
2022/09/29 11:58:53;;;;;;;6.17;3.33;;;;;;;21.71;50.27;93406.92;1645771;87;21109;-62
2022/09/29 12:01:55;;;;;;;23.32;11.40;;;;;;;22.00;49.18;93406.23;1658647;83;22242;-65